sensor_id;sensor_type;location;lat;lon;timestamp;P1;durP1;ratioP1;P2;durP2;ratioP2
11241;SDS011;5678;52.370;9.006;2023-03-16T00:02:04;0.93;;;0.93;;
11241;SDS011;5678;52.370;9.006;2023-03-16T00:04:32;0.83;;;0.83;;
11241;SDS011;5678;52.370;9.006;2023-03-16T00:07:02;0.90;;;0.90;;
11241;SDS011;5678;52.370;9.006;2023-03-16T00:09:31;0.90;;;0.90;;
11241;SDS011;5678;52.370;9.006;2023-03-16T00:11:59;0.90;;;0.90;;
11241;SDS011;5678;52.370;9.006;2023-03-16T00:14:29;1.10;;;1.10;;
11241;SDS011;5678;52.370;9.006;2023-03-16T00:16:59;0.80;;;0.80;;
11241;SDS011;5678;52.370;9.006;2023-03-16T00:19:27;0.90;;;0.90;;
11241;SDS011;5678;52.370;9.006;2023-03-16T00:21:55;1.07;;;1.07;;
11241;SDS011;5678;52.370;9.006;2023-03-16T00:24:23;0.50;;;0.50;;
11241;SDS011;5678;52.370;9.006;2023-03-16T00:26:50;1.10;;;1.10;;
11241;SDS011;5678;52.370;9.006;2023-03-16T00:29:20;0.70;;;0.70;;
11241;SDS011;5678;52.370;9.006;2023-03-16T00:31:48;0.90;;;0.90;;
11241;SDS011;5678;52.370;9.006;2023-03-16T00:34:18;0.80;;;0.80;;
11241;SDS011;5678;52.370;9.006;2023-03-16T00:36:48;1.00;;;1.00;;
11241;SDS011;5678;52.370;9.006;2023-03-16T00:39:16;0.80;;;0.80;;
11241;SDS011;5678;52.370;9.006;2023-03-16T00:41:43;1.00;;;1.00;;
11241;SDS011;5678;52.370;9.006;2023-03-16T00:44:11;1.10;;;1.10;;
11241;SDS011;5678;52.370;9.006;2023-03-16T00:46:39;0.80;;;0.80;;
11241;SDS011;5678;52.370;9.006;2023-03-16T00:49:07;0.73;;;0.73;;
11241;SDS011;5678;52.370;9.006;2023-03-16T00:51:37;0.97;;;0.97;;
11241;SDS011;5678;52.370;9.006;2023-03-16T00:54:05;1.10;;;1.10;;
11241;SDS011;5678;52.370;9.006;2023-03-16T00:56:32;0.90;;;0.90;;
11241;SDS011;5678;52.370;9.006;2023-03-16T00:59:00;0.90;;;0.90;;
11241;SDS011;5678;52.370;9.006;2023-03-16T01:01:28;0.90;;;0.90;;
11241;SDS011;5678;52.370;9.006;2023-03-16T01:03:58;1.10;;;1.10;;
11241;SDS011;5678;52.370;9.006;2023-03-16T01:06:26;0.60;;;0.60;;
11241;SDS011;5678;52.370;9.006;2023-03-16T01:08:56;0.53;;;0.53;;
11241;SDS011;5678;52.370;9.006;2023-03-16T01:11:24;0.70;;;0.70;;
11241;SDS011;5678;52.370;9.006;2023-03-16T01:13:52;1.00;;;1.00;;
11241;SDS011;5678;52.370;9.006;2023-03-16T01:16:20;0.80;;;0.80;;
11241;SDS011;5678;52.370;9.006;2023-03-16T01:18:49;1.17;;;1.17;;
11241;SDS011;5678;52.370;9.006;2023-03-16T01:21:17;0.87;;;0.87;;
11241;SDS011;5678;52.370;9.006;2023-03-16T01:23:46;1.07;;;1.07;;
11241;SDS011;5678;52.370;9.006;2023-03-16T01:26:16;0.60;;;0.60;;
11241;SDS011;5678;52.370;9.006;2023-03-16T01:28:44;0.90;;;0.90;;
11241;SDS011;5678;52.370;9.006;2023-03-16T01:31:12;0.60;;;0.60;;
11241;SDS011;5678;52.370;9.006;2023-03-16T01:33:41;0.80;;;0.80;;
11241;SDS011;5678;52.370;9.006;2023-03-16T01:36:10;1.13;;;1.13;;
11241;SDS011;5678;52.370;9.006;2023-03-16T01:38:39;0.83;;;0.83;;
11241;SDS011;5678;52.370;9.006;2023-03-16T01:41:08;0.90;;;0.90;;
11241;SDS011;5678;52.370;9.006;2023-03-16T01:43:38;1.00;;;1.00;;
11241;SDS011;5678;52.370;9.006;2023-03-16T01:46:17;0.83;;;0.83;;
11241;SDS011;5678;52.370;9.006;2023-03-16T01:48:49;0.70;;;0.70;;
11241;SDS011;5678;52.370;9.006;2023-03-16T01:51:22;0.87;;;0.87;;
11241;SDS011;5678;52.370;9.006;2023-03-16T01:53:52;1.00;;;1.00;;
11241;SDS011;5678;52.370;9.006;2023-03-16T01:56:24;0.90;;;0.90;;
11241;SDS011;5678;52.370;9.006;2023-03-16T01:58:57;1.00;;;1.00;;
11241;SDS011;5678;52.370;9.006;2023-03-16T02:01:27;0.90;;;0.90;;
11241;SDS011;5678;52.370;9.006;2023-03-16T02:03:56;0.83;;;0.83;;
11241;SDS011;5678;52.370;9.006;2023-03-16T02:06:29;1.20;;;1.20;;
11241;SDS011;5678;52.370;9.006;2023-03-16T02:08:58;0.77;;;0.77;;
11241;SDS011;5678;52.370;9.006;2023-03-16T02:11:26;1.33;;;1.33;;
11241;SDS011;5678;52.370;9.006;2023-03-16T02:13:54;0.80;;;0.80;;
11241;SDS011;5678;52.370;9.006;2023-03-16T02:16:29;0.80;;;0.80;;
11241;SDS011;5678;52.370;9.006;2023-03-16T02:18:57;1.00;;;1.00;;
11241;SDS011;5678;52.370;9.006;2023-03-16T02:21:27;1.00;;;1.00;;
11241;SDS011;5678;52.370;9.006;2023-03-16T02:24:00;1.20;;;1.20;;
11241;SDS011;5678;52.370;9.006;2023-03-16T02:26:32;1.13;;;1.13;;
11241;SDS011;5678;52.370;9.006;2023-03-16T02:29:09;0.80;;;0.80;;
11241;SDS011;5678;52.370;9.006;2023-03-16T02:31:44;1.10;;;1.10;;
11241;SDS011;5678;52.370;9.006;2023-03-16T02:34:13;1.07;;;1.07;;
11241;SDS011;5678;52.370;9.006;2023-03-16T02:36:43;1.10;;;1.10;;
11241;SDS011;5678;52.370;9.006;2023-03-16T02:39:13;0.93;;;0.93;;
11241;SDS011;5678;52.370;9.006;2023-03-16T02:41:41;1.10;;;1.10;;
11241;SDS011;5678;52.370;9.006;2023-03-16T02:44:10;1.00;;;1.00;;
11241;SDS011;5678;52.370;9.006;2023-03-16T02:46:41;1.20;;;1.20;;
11241;SDS011;5678;52.370;9.006;2023-03-16T02:49:13;0.83;;;0.83;;
11241;SDS011;5678;52.370;9.006;2023-03-16T02:51:44;0.83;;;0.83;;
11241;SDS011;5678;52.370;9.006;2023-03-16T02:54:13;1.00;;;1.00;;
11241;SDS011;5678;52.370;9.006;2023-03-16T02:56:41;1.03;;;1.03;;
11241;SDS011;5678;52.370;9.006;2023-03-16T02:59:09;1.10;;;1.10;;
11241;SDS011;5678;52.370;9.006;2023-03-16T03:01:37;1.10;;;1.10;;
11241;SDS011;5678;52.370;9.006;2023-03-16T03:04:05;1.40;;;1.40;;
11241;SDS011;5678;52.370;9.006;2023-03-16T03:06:34;0.90;;;0.90;;
11241;SDS011;5678;52.370;9.006;2023-03-16T03:09:02;1.10;;;1.10;;
11241;SDS011;5678;52.370;9.006;2023-03-16T03:11:31;0.93;;;0.93;;
11241;SDS011;5678;52.370;9.006;2023-03-16T03:13:59;1.03;;;1.03;;
11241;SDS011;5678;52.370;9.006;2023-03-16T03:16:27;1.00;;;1.00;;
11241;SDS011;5678;52.370;9.006;2023-03-16T03:18:55;1.30;;;1.30;;
11241;SDS011;5678;52.370;9.006;2023-03-16T03:21:23;0.90;;;0.90;;
11241;SDS011;5678;52.370;9.006;2023-03-16T03:23:53;1.07;;;1.07;;
11241;SDS011;5678;52.370;9.006;2023-03-16T03:26:21;1.10;;;1.10;;
11241;SDS011;5678;52.370;9.006;2023-03-16T03:28:49;1.00;;;1.00;;
11241;SDS011;5678;52.370;9.006;2023-03-16T03:31:19;0.80;;;0.80;;
11241;SDS011;5678;52.370;9.006;2023-03-16T03:33:48;1.00;;;1.00;;
11241;SDS011;5678;52.370;9.006;2023-03-16T03:36:16;1.23;;;1.23;;
11241;SDS011;5678;52.370;9.006;2023-03-16T03:38:44;1.00;;;1.00;;
11241;SDS011;5678;52.370;9.006;2023-03-16T03:41:16;0.70;;;0.70;;
11241;SDS011;5678;52.370;9.006;2023-03-16T03:43:43;1.00;;;1.00;;
11241;SDS011;5678;52.370;9.006;2023-03-16T03:46:11;0.70;;;0.70;;
11241;SDS011;5678;52.370;9.006;2023-03-16T03:48:39;0.70;;;0.70;;
11241;SDS011;5678;52.370;9.006;2023-03-16T03:51:08;0.97;;;0.97;;
11241;SDS011;5678;52.370;9.006;2023-03-16T03:53:35;0.80;;;0.80;;
11241;SDS011;5678;52.370;9.006;2023-03-16T03:56:04;0.70;;;0.70;;
11241;SDS011;5678;52.370;9.006;2023-03-16T03:58:33;0.70;;;0.70;;
11241;SDS011;5678;52.370;9.006;2023-03-16T04:01:01;1.00;;;1.00;;
11241;SDS011;5678;52.370;9.006;2023-03-16T04:03:29;0.80;;;0.80;;
11241;SDS011;5678;52.370;9.006;2023-03-16T04:05:57;0.80;;;0.80;;
11241;SDS011;5678;52.370;9.006;2023-03-16T04:08:26;0.87;;;0.87;;
11241;SDS011;5678;52.370;9.006;2023-03-16T04:10:54;1.10;;;1.10;;
11241;SDS011;5678;52.370;9.006;2023-03-16T04:13:22;0.97;;;0.97;;
11241;SDS011;5678;52.370;9.006;2023-03-16T04:15:55;0.63;;;0.63;;
11241;SDS011;5678;52.370;9.006;2023-03-16T04:18:24;0.80;;;0.80;;
11241;SDS011;5678;52.370;9.006;2023-03-16T04:20:52;1.10;;;1.10;;
11241;SDS011;5678;52.370;9.006;2023-03-16T04:23:20;1.10;;;1.10;;
11241;SDS011;5678;52.370;9.006;2023-03-16T04:25:50;0.83;;;0.83;;
11241;SDS011;5678;52.370;9.006;2023-03-16T04:28:18;0.80;;;0.80;;
11241;SDS011;5678;52.370;9.006;2023-03-16T04:30:45;0.60;;;0.60;;
11241;SDS011;5678;52.370;9.006;2023-03-16T04:33:15;0.63;;;0.63;;
11241;SDS011;5678;52.370;9.006;2023-03-16T04:35:43;0.77;;;0.77;;
11241;SDS011;5678;52.370;9.006;2023-03-16T04:38:11;0.70;;;0.70;;
11241;SDS011;5678;52.370;9.006;2023-03-16T04:40:39;0.60;;;0.60;;
11241;SDS011;5678;52.370;9.006;2023-03-16T04:43:07;0.67;;;0.67;;
11241;SDS011;5678;52.370;9.006;2023-03-16T04:45:35;0.50;;;0.50;;
11241;SDS011;5678;52.370;9.006;2023-03-16T04:48:03;0.60;;;0.60;;
11241;SDS011;5678;52.370;9.006;2023-03-16T04:50:33;0.80;;;0.80;;
11241;SDS011;5678;52.370;9.006;2023-03-16T04:53:01;0.77;;;0.77;;
11241;SDS011;5678;52.370;9.006;2023-03-16T04:55:29;0.90;;;0.90;;
11241;SDS011;5678;52.370;9.006;2023-03-16T04:57:57;0.80;;;0.80;;
11241;SDS011;5678;52.370;9.006;2023-03-16T05:00:25;0.40;;;0.40;;
11241;SDS011;5678;52.370;9.006;2023-03-16T05:02:54;0.40;;;0.40;;
11241;SDS011;5678;52.370;9.006;2023-03-16T05:05:22;0.57;;;0.57;;
11241;SDS011;5678;52.370;9.006;2023-03-16T05:07:53;0.50;;;0.50;;
11241;SDS011;5678;52.370;9.006;2023-03-16T05:10:21;0.53;;;0.53;;
11241;SDS011;5678;52.370;9.006;2023-03-16T05:12:49;0.50;;;0.50;;
11241;SDS011;5678;52.370;9.006;2023-03-16T05:15:17;0.57;;;0.57;;
11241;SDS011;5678;52.370;9.006;2023-03-16T05:17:45;0.60;;;0.60;;
11241;SDS011;5678;52.370;9.006;2023-03-16T05:20:13;0.50;;;0.50;;
11241;SDS011;5678;52.370;9.006;2023-03-16T05:22:42;0.90;;;0.90;;
11241;SDS011;5678;52.370;9.006;2023-03-16T05:25:13;0.50;;;0.50;;
11241;SDS011;5678;52.370;9.006;2023-03-16T05:27:41;0.50;;;0.50;;
11241;SDS011;5678;52.370;9.006;2023-03-16T05:30:10;0.63;;;0.63;;
11241;SDS011;5678;52.370;9.006;2023-03-16T05:32:38;0.70;;;0.70;;
11241;SDS011;5678;52.370;9.006;2023-03-16T05:35:07;0.67;;;0.67;;
11241;SDS011;5678;52.370;9.006;2023-03-16T05:37:38;0.60;;;0.60;;
11241;SDS011;5678;52.370;9.006;2023-03-16T05:40:07;0.37;;;0.37;;
11241;SDS011;5678;52.370;9.006;2023-03-16T05:42:44;0.67;;;0.67;;
11241;SDS011;5678;52.370;9.006;2023-03-16T05:45:13;0.60;;;0.60;;
11241;SDS011;5678;52.370;9.006;2023-03-16T05:47:42;0.70;;;0.70;;
11241;SDS011;5678;52.370;9.006;2023-03-16T05:50:11;0.40;;;0.40;;
11241;SDS011;5678;52.370;9.006;2023-03-16T05:52:42;0.40;;;0.40;;
11241;SDS011;5678;52.370;9.006;2023-03-16T05:55:14;0.53;;;0.53;;
11241;SDS011;5678;52.370;9.006;2023-03-16T05:57:45;0.50;;;0.50;;
11241;SDS011;5678;52.370;9.006;2023-03-16T06:00:13;0.50;;;0.50;;
11241;SDS011;5678;52.370;9.006;2023-03-16T06:02:43;0.50;;;0.50;;
11241;SDS011;5678;52.370;9.006;2023-03-16T06:05:13;0.60;;;0.60;;
11241;SDS011;5678;52.370;9.006;2023-03-16T06:07:41;0.40;;;0.40;;
11241;SDS011;5678;52.370;9.006;2023-03-16T06:10:09;0.70;;;0.70;;
11241;SDS011;5678;52.370;9.006;2023-03-16T06:12:39;0.67;;;0.67;;
11241;SDS011;5678;52.370;9.006;2023-03-16T06:15:09;0.47;;;0.47;;
11241;SDS011;5678;52.370;9.006;2023-03-16T06:17:38;0.57;;;0.57;;
11241;SDS011;5678;52.370;9.006;2023-03-16T06:20:07;0.40;;;0.40;;
11241;SDS011;5678;52.370;9.006;2023-03-16T06:22:36;0.40;;;0.40;;
11241;SDS011;5678;52.370;9.006;2023-03-16T06:25:05;0.70;;;0.70;;
11241;SDS011;5678;52.370;9.006;2023-03-16T06:27:35;0.40;;;0.40;;
11241;SDS011;5678;52.370;9.006;2023-03-16T06:30:03;0.40;;;0.40;;
11241;SDS011;5678;52.370;9.006;2023-03-16T06:32:33;0.40;;;0.40;;
11241;SDS011;5678;52.370;9.006;2023-03-16T06:35:03;0.50;;;0.50;;
11241;SDS011;5678;52.370;9.006;2023-03-16T06:37:31;0.40;;;0.40;;
11241;SDS011;5678;52.370;9.006;2023-03-16T06:39:59;0.40;;;0.40;;
11241;SDS011;5678;52.370;9.006;2023-03-16T06:42:27;0.40;;;0.40;;
11241;SDS011;5678;52.370;9.006;2023-03-16T06:44:55;0.30;;;0.30;;
11241;SDS011;5678;52.370;9.006;2023-03-16T06:47:23;0.47;;;0.47;;
11241;SDS011;5678;52.370;9.006;2023-03-16T06:49:53;0.40;;;0.40;;
11241;SDS011;5678;52.370;9.006;2023-03-16T06:52:21;0.40;;;0.40;;
11241;SDS011;5678;52.370;9.006;2023-03-16T06:54:49;0.60;;;0.60;;
11241;SDS011;5678;52.370;9.006;2023-03-16T06:57:17;0.40;;;0.40;;
11241;SDS011;5678;52.370;9.006;2023-03-16T06:59:45;0.30;;;0.30;;
11241;SDS011;5678;52.370;9.006;2023-03-16T07:02:13;0.60;;;0.60;;
11241;SDS011;5678;52.370;9.006;2023-03-16T07:04:42;0.30;;;0.30;;
11241;SDS011;5678;52.370;9.006;2023-03-16T07:07:11;0.40;;;0.40;;
11241;SDS011;5678;52.370;9.006;2023-03-16T07:09:39;0.30;;;0.30;;
11241;SDS011;5678;52.370;9.006;2023-03-16T07:12:07;0.40;;;0.40;;
11241;SDS011;5678;52.370;9.006;2023-03-16T07:14:35;0.40;;;0.40;;
11241;SDS011;5678;52.370;9.006;2023-03-16T07:17:04;0.40;;;0.40;;
11241;SDS011;5678;52.370;9.006;2023-03-16T07:19:32;0.30;;;0.30;;
11241;SDS011;5678;52.370;9.006;2023-03-16T07:22:00;0.50;;;0.50;;
11241;SDS011;5678;52.370;9.006;2023-03-16T07:24:30;0.37;;;0.37;;
11241;SDS011;5678;52.370;9.006;2023-03-16T07:26:58;0.40;;;0.40;;
11241;SDS011;5678;52.370;9.006;2023-03-16T07:29:27;0.30;;;0.30;;
11241;SDS011;5678;52.370;9.006;2023-03-16T07:31:54;0.40;;;0.40;;
11241;SDS011;5678;52.370;9.006;2023-03-16T07:34:22;0.40;;;0.40;;
11241;SDS011;5678;52.370;9.006;2023-03-16T07:36:50;0.30;;;0.30;;
11241;SDS011;5678;52.370;9.006;2023-03-16T07:39:18;0.37;;;0.37;;
11241;SDS011;5678;52.370;9.006;2023-03-16T07:41:48;0.40;;;0.40;;
11241;SDS011;5678;52.370;9.006;2023-03-16T07:44:16;0.40;;;0.40;;
11241;SDS011;5678;52.370;9.006;2023-03-16T07:46:44;0.40;;;0.40;;
11241;SDS011;5678;52.370;9.006;2023-03-16T07:49:12;0.40;;;0.40;;
11241;SDS011;5678;52.370;9.006;2023-03-16T07:51:41;0.37;;;0.37;;
11241;SDS011;5678;52.370;9.006;2023-03-16T07:54:09;0.40;;;0.40;;
11241;SDS011;5678;52.370;9.006;2023-03-16T07:56:39;0.27;;;0.27;;
11241;SDS011;5678;52.370;9.006;2023-03-16T07:59:16;0.40;;;0.40;;
11241;SDS011;5678;52.370;9.006;2023-03-16T08:01:46;0.30;;;0.30;;
11241;SDS011;5678;52.370;9.006;2023-03-16T08:04:14;0.40;;;0.40;;
11241;SDS011;5678;52.370;9.006;2023-03-16T08:06:42;0.40;;;0.40;;
11241;SDS011;5678;52.370;9.006;2023-03-16T08:09:11;0.47;;;0.47;;
11241;SDS011;5678;52.370;9.006;2023-03-16T08:11:39;0.50;;;0.50;;
11241;SDS011;5678;52.370;9.006;2023-03-16T08:14:07;0.40;;;0.40;;
11241;SDS011;5678;52.370;9.006;2023-03-16T08:16:37;0.40;;;0.40;;
11241;SDS011;5678;52.370;9.006;2023-03-16T08:19:05;0.40;;;0.40;;
11241;SDS011;5678;52.370;9.006;2023-03-16T08:21:32;0.40;;;0.40;;
11241;SDS011;5678;52.370;9.006;2023-03-16T08:24:21;0.30;;;0.30;;
11241;SDS011;5678;52.370;9.006;2023-03-16T08:26:49;0.37;;;0.37;;
11241;SDS011;5678;52.370;9.006;2023-03-16T08:29:17;0.40;;;0.40;;
11241;SDS011;5678;52.370;9.006;2023-03-16T08:31:47;0.30;;;0.30;;
11241;SDS011;5678;52.370;9.006;2023-03-16T08:34:15;0.40;;;0.40;;
11241;SDS011;5678;52.370;9.006;2023-03-16T08:36:43;0.40;;;0.40;;
11241;SDS011;5678;52.370;9.006;2023-03-16T08:39:11;0.40;;;0.40;;
11241;SDS011;5678;52.370;9.006;2023-03-16T08:41:40;0.37;;;0.37;;
11241;SDS011;5678;52.370;9.006;2023-03-16T08:44:09;0.40;;;0.40;;
11241;SDS011;5678;52.370;9.006;2023-03-16T08:46:38;0.27;;;0.27;;
11241;SDS011;5678;52.370;9.006;2023-03-16T08:49:08;0.30;;;0.30;;
11241;SDS011;5678;52.370;9.006;2023-03-16T08:51:38;0.40;;;0.40;;
11241;SDS011;5678;52.370;9.006;2023-03-16T08:54:10;0.40;;;0.40;;
11241;SDS011;5678;52.370;9.006;2023-03-16T08:56:42;0.30;;;0.30;;
11241;SDS011;5678;52.370;9.006;2023-03-16T08:59:10;0.30;;;0.30;;
11241;SDS011;5678;52.370;9.006;2023-03-16T09:01:54;0.30;;;0.30;;
11241;SDS011;5678;52.370;9.006;2023-03-16T09:04:23;0.40;;;0.40;;
11241;SDS011;5678;52.370;9.006;2023-03-16T09:06:51;0.37;;;0.37;;
11241;SDS011;5678;52.370;9.006;2023-03-16T09:09:33;0.30;;;0.30;;
11241;SDS011;5678;52.370;9.006;2023-03-16T09:12:02;0.40;;;0.40;;
11241;SDS011;5678;52.370;9.006;2023-03-16T09:14:31;0.40;;;0.40;;
11241;SDS011;5678;52.370;9.006;2023-03-16T09:16:59;0.40;;;0.40;;
11241;SDS011;5678;52.370;9.006;2023-03-16T09:19:28;0.30;;;0.30;;
11241;SDS011;5678;52.370;9.006;2023-03-16T09:22:15;0.40;;;0.40;;
11241;SDS011;5678;52.370;9.006;2023-03-16T09:24:43;0.43;;;0.43;;
11241;SDS011;5678;52.370;9.006;2023-03-16T09:27:12;0.30;;;0.30;;
11241;SDS011;5678;52.370;9.006;2023-03-16T09:29:41;0.30;;;0.30;;
11241;SDS011;5678;52.370;9.006;2023-03-16T09:32:10;0.40;;;0.40;;
11241;SDS011;5678;52.370;9.006;2023-03-16T09:34:41;0.40;;;0.40;;
11241;SDS011;5678;52.370;9.006;2023-03-16T09:37:10;0.97;;;0.97;;
11241;SDS011;5678;52.370;9.006;2023-03-16T09:39:37;0.27;;;0.27;;
11241;SDS011;5678;52.370;9.006;2023-03-16T09:42:13;0.30;;;0.30;;
11241;SDS011;5678;52.370;9.006;2023-03-16T09:44:47;0.30;;;0.30;;
11241;SDS011;5678;52.370;9.006;2023-03-16T09:47:24;0.27;;;0.27;;
11241;SDS011;5678;52.370;9.006;2023-03-16T09:49:56;0.30;;;0.30;;
11241;SDS011;5678;52.370;9.006;2023-03-16T09:52:33;0.40;;;0.40;;
11241;SDS011;5678;52.370;9.006;2023-03-16T09:55:06;0.30;;;0.30;;
11241;SDS011;5678;52.370;9.006;2023-03-16T09:57:42;0.20;;;0.20;;
11241;SDS011;5678;52.370;9.006;2023-03-16T10:00:16;0.20;;;0.20;;
11241;SDS011;5678;52.370;9.006;2023-03-16T10:02:50;0.20;;;0.20;;
11241;SDS011;5678;52.370;9.006;2023-03-16T10:05:37;0.30;;;0.30;;
11241;SDS011;5678;52.370;9.006;2023-03-16T10:08:07;0.20;;;0.20;;
11241;SDS011;5678;52.370;9.006;2023-03-16T10:13:34;0.50;;;0.50;;
11241;SDS011;5678;52.370;9.006;2023-03-16T10:16:08;0.30;;;0.30;;
11241;SDS011;5678;52.370;9.006;2023-03-16T10:18:40;0.20;;;0.20;;
11241;SDS011;5678;52.370;9.006;2023-03-16T10:21:13;0.33;;;0.33;;
11241;SDS011;5678;52.370;9.006;2023-03-16T10:23:44;0.30;;;0.30;;
11241;SDS011;5678;52.370;9.006;2023-03-16T10:26:14;0.20;;;0.20;;
11241;SDS011;5678;52.370;9.006;2023-03-16T10:28:44;0.30;;;0.30;;
11241;SDS011;5678;52.370;9.006;2023-03-16T10:31:13;0.30;;;0.30;;
11241;SDS011;5678;52.370;9.006;2023-03-16T10:33:44;0.20;;;0.20;;
11241;SDS011;5678;52.370;9.006;2023-03-16T10:36:17;0.30;;;0.30;;
11241;SDS011;5678;52.370;9.006;2023-03-16T10:38:52;0.40;;;0.40;;
11241;SDS011;5678;52.370;9.006;2023-03-16T10:41:26;0.40;;;0.40;;
11241;SDS011;5678;52.370;9.006;2023-03-16T10:43:56;0.30;;;0.30;;
11241;SDS011;5678;52.370;9.006;2023-03-16T10:46:25;0.30;;;0.30;;
11241;SDS011;5678;52.370;9.006;2023-03-16T10:48:55;0.23;;;0.23;;
11241;SDS011;5678;52.370;9.006;2023-03-16T10:51:28;0.30;;;0.30;;
11241;SDS011;5678;52.370;9.006;2023-03-16T10:54:01;0.30;;;0.30;;
11241;SDS011;5678;52.370;9.006;2023-03-16T10:56:36;0.30;;;0.30;;
11241;SDS011;5678;52.370;9.006;2023-03-16T10:59:12;0.30;;;0.30;;
11241;SDS011;5678;52.370;9.006;2023-03-16T11:01:46;0.20;;;0.20;;
11241;SDS011;5678;52.370;9.006;2023-03-16T11:04:15;0.27;;;0.27;;
11241;SDS011;5678;52.370;9.006;2023-03-16T11:06:52;0.20;;;0.20;;
11241;SDS011;5678;52.370;9.006;2023-03-16T11:09:22;0.30;;;0.30;;
11241;SDS011;5678;52.370;9.006;2023-03-16T11:11:52;0.20;;;0.20;;
11241;SDS011;5678;52.370;9.006;2023-03-16T11:14:22;0.30;;;0.30;;
11241;SDS011;5678;52.370;9.006;2023-03-16T11:16:58;0.30;;;0.30;;
11241;SDS011;5678;52.370;9.006;2023-03-16T11:19:30;0.20;;;0.20;;
11241;SDS011;5678;52.370;9.006;2023-03-16T11:22:03;0.20;;;0.20;;
11241;SDS011;5678;52.370;9.006;2023-03-16T11:24:39;0.30;;;0.30;;
11241;SDS011;5678;52.370;9.006;2023-03-16T11:27:15;0.20;;;0.20;;
11241;SDS011;5678;52.370;9.006;2023-03-16T11:32:42;0.30;;;0.30;;
11241;SDS011;5678;52.370;9.006;2023-03-16T11:35:15;0.40;;;0.40;;
11241;SDS011;5678;52.370;9.006;2023-03-16T11:37:50;0.30;;;0.30;;
11241;SDS011;5678;52.370;9.006;2023-03-16T11:40:35;0.20;;;0.20;;
11241;SDS011;5678;52.370;9.006;2023-03-16T11:43:24;0.30;;;0.30;;
11241;SDS011;5678;52.370;9.006;2023-03-16T11:46:16;0.30;;;0.30;;
11241;SDS011;5678;52.370;9.006;2023-03-16T11:48:59;0.30;;;0.30;;
11241;SDS011;5678;52.370;9.006;2023-03-16T11:51:44;0.20;;;0.20;;
11241;SDS011;5678;52.370;9.006;2023-03-16T11:54:29;0.30;;;0.30;;
11241;SDS011;5678;52.370;9.006;2023-03-16T11:57:08;0.20;;;0.20;;
11241;SDS011;5678;52.370;9.006;2023-03-16T11:59:54;0.30;;;0.30;;
11241;SDS011;5678;52.370;9.006;2023-03-16T12:02:34;0.20;;;0.20;;
11241;SDS011;5678;52.370;9.006;2023-03-16T12:08:24;0.30;;;0.30;;
11241;SDS011;5678;52.370;9.006;2023-03-16T12:11:07;0.30;;;0.30;;
11241;SDS011;5678;52.370;9.006;2023-03-16T12:13:44;0.30;;;0.30;;
11241;SDS011;5678;52.370;9.006;2023-03-16T12:16:24;0.30;;;0.30;;
11241;SDS011;5678;52.370;9.006;2023-03-16T12:19:13;0.20;;;0.20;;
11241;SDS011;5678;52.370;9.006;2023-03-16T12:21:47;0.30;;;0.30;;
11241;SDS011;5678;52.370;9.006;2023-03-16T12:24:27;0.40;;;0.40;;
11241;SDS011;5678;52.370;9.006;2023-03-16T12:27:03;0.20;;;0.20;;
11241;SDS011;5678;52.370;9.006;2023-03-16T12:29:33;0.30;;;0.30;;
11241;SDS011;5678;52.370;9.006;2023-03-16T12:32:07;0.30;;;0.30;;
11241;SDS011;5678;52.370;9.006;2023-03-16T12:34:39;0.30;;;0.30;;
11241;SDS011;5678;52.370;9.006;2023-03-16T12:37:18;0.30;;;0.30;;
11241;SDS011;5678;52.370;9.006;2023-03-16T12:42:49;0.30;;;0.30;;
11241;SDS011;5678;52.370;9.006;2023-03-16T12:45:37;0.30;;;0.30;;
11241;SDS011;5678;52.370;9.006;2023-03-16T12:48:12;0.30;;;0.30;;
11241;SDS011;5678;52.370;9.006;2023-03-16T12:50:47;0.30;;;0.30;;
11241;SDS011;5678;52.370;9.006;2023-03-16T12:53:24;0.30;;;0.30;;
11241;SDS011;5678;52.370;9.006;2023-03-16T12:55:53;0.40;;;0.40;;
11241;SDS011;5678;52.370;9.006;2023-03-16T12:58:24;0.30;;;0.30;;
11241;SDS011;5678;52.370;9.006;2023-03-16T13:00:54;0.20;;;0.20;;
11241;SDS011;5678;52.370;9.006;2023-03-16T13:03:24;0.30;;;0.30;;
11241;SDS011;5678;52.370;9.006;2023-03-16T13:05:54;0.20;;;0.20;;
11241;SDS011;5678;52.370;9.006;2023-03-16T13:08:24;0.40;;;0.40;;
11241;SDS011;5678;52.370;9.006;2023-03-16T13:11:01;0.20;;;0.20;;
11241;SDS011;5678;52.370;9.006;2023-03-16T13:13:31;0.30;;;0.30;;
11241;SDS011;5678;52.370;9.006;2023-03-16T13:16:01;0.30;;;0.30;;
11241;SDS011;5678;52.370;9.006;2023-03-16T13:18:33;0.30;;;0.30;;
11241;SDS011;5678;52.370;9.006;2023-03-16T13:24:11;0.30;;;0.30;;
11241;SDS011;5678;52.370;9.006;2023-03-16T13:26:41;0.27;;;0.27;;
11241;SDS011;5678;52.370;9.006;2023-03-16T13:29:20;0.30;;;0.30;;
11241;SDS011;5678;52.370;9.006;2023-03-16T13:31:51;0.20;;;0.20;;
11241;SDS011;5678;52.370;9.006;2023-03-16T13:34:20;0.20;;;0.20;;
11241;SDS011;5678;52.370;9.006;2023-03-16T13:36:52;0.40;;;0.40;;
11241;SDS011;5678;52.370;9.006;2023-03-16T13:39:23;0.20;;;0.20;;
11241;SDS011;5678;52.370;9.006;2023-03-16T13:41:54;0.20;;;0.20;;
11241;SDS011;5678;52.370;9.006;2023-03-16T13:44:28;0.20;;;0.20;;
11241;SDS011;5678;52.370;9.006;2023-03-16T13:47:01;0.27;;;0.27;;
11241;SDS011;5678;52.370;9.006;2023-03-16T13:49:30;0.20;;;0.20;;
11241;SDS011;5678;52.370;9.006;2023-03-16T13:51:58;0.20;;;0.20;;
11241;SDS011;5678;52.370;9.006;2023-03-16T13:54:26;0.20;;;0.20;;
11241;SDS011;5678;52.370;9.006;2023-03-16T13:56:56;0.30;;;0.30;;
11241;SDS011;5678;52.370;9.006;2023-03-16T13:59:25;0.30;;;0.30;;
11241;SDS011;5678;52.370;9.006;2023-03-16T14:01:55;0.27;;;0.27;;
11241;SDS011;5678;52.370;9.006;2023-03-16T14:04:26;0.23;;;0.23;;
11241;SDS011;5678;52.370;9.006;2023-03-16T14:06:56;0.30;;;0.30;;
11241;SDS011;5678;52.370;9.006;2023-03-16T14:09:27;0.30;;;0.30;;
11241;SDS011;5678;52.370;9.006;2023-03-16T14:11:59;0.30;;;0.30;;
11241;SDS011;5678;52.370;9.006;2023-03-16T14:14:30;0.23;;;0.23;;
11241;SDS011;5678;52.370;9.006;2023-03-16T14:17:07;0.30;;;0.30;;
11241;SDS011;5678;52.370;9.006;2023-03-16T14:19:39;0.30;;;0.30;;
11241;SDS011;5678;52.370;9.006;2023-03-16T14:22:11;0.30;;;0.30;;
11241;SDS011;5678;52.370;9.006;2023-03-16T14:24:41;0.20;;;0.20;;
11241;SDS011;5678;52.370;9.006;2023-03-16T14:27:17;0.40;;;0.40;;
11241;SDS011;5678;52.370;9.006;2023-03-16T14:29:51;0.30;;;0.30;;
11241;SDS011;5678;52.370;9.006;2023-03-16T14:32:23;0.23;;;0.23;;
11241;SDS011;5678;52.370;9.006;2023-03-16T14:35:10;0.30;;;0.30;;
11241;SDS011;5678;52.370;9.006;2023-03-16T14:37:40;0.40;;;0.40;;
11241;SDS011;5678;52.370;9.006;2023-03-16T14:40:20;0.30;;;0.30;;
11241;SDS011;5678;52.370;9.006;2023-03-16T14:42:49;0.20;;;0.20;;
11241;SDS011;5678;52.370;9.006;2023-03-16T14:45:20;0.20;;;0.20;;
11241;SDS011;5678;52.370;9.006;2023-03-16T14:47:48;0.30;;;0.30;;
11241;SDS011;5678;52.370;9.006;2023-03-16T14:50:21;0.27;;;0.27;;
11241;SDS011;5678;52.370;9.006;2023-03-16T14:52:50;0.30;;;0.30;;
11241;SDS011;5678;52.370;9.006;2023-03-16T14:55:22;0.20;;;0.20;;
11241;SDS011;5678;52.370;9.006;2023-03-16T14:57:51;0.30;;;0.30;;
11241;SDS011;5678;52.370;9.006;2023-03-16T15:00:20;0.30;;;0.30;;
11241;SDS011;5678;52.370;9.006;2023-03-16T15:02:53;0.27;;;0.27;;
11241;SDS011;5678;52.370;9.006;2023-03-16T15:05:28;0.30;;;0.30;;
11241;SDS011;5678;52.370;9.006;2023-03-16T15:08:01;0.20;;;0.20;;
11241;SDS011;5678;52.370;9.006;2023-03-16T15:10:31;0.30;;;0.30;;
11241;SDS011;5678;52.370;9.006;2023-03-16T15:13:00;0.30;;;0.30;;
11241;SDS011;5678;52.370;9.006;2023-03-16T15:15:39;0.30;;;0.30;;
11241;SDS011;5678;52.370;9.006;2023-03-16T15:18:09;0.30;;;0.30;;
11241;SDS011;5678;52.370;9.006;2023-03-16T15:20:38;0.30;;;0.30;;
11241;SDS011;5678;52.370;9.006;2023-03-16T15:23:09;0.30;;;0.30;;
11241;SDS011;5678;52.370;9.006;2023-03-16T15:25:40;0.30;;;0.30;;
11241;SDS011;5678;52.370;9.006;2023-03-16T15:28:11;0.40;;;0.40;;
11241;SDS011;5678;52.370;9.006;2023-03-16T15:30:44;0.30;;;0.30;;
11241;SDS011;5678;52.370;9.006;2023-03-16T15:33:13;0.30;;;0.30;;
11241;SDS011;5678;52.370;9.006;2023-03-16T15:35:42;0.30;;;0.30;;
11241;SDS011;5678;52.370;9.006;2023-03-16T15:38:13;0.30;;;0.30;;